sensor_id;sensor_type;location;lat;lon;timestamp;pressure;altitude;pressure_sealevel;temperature;humidity
37694;BME280;23531;50.122;8.644;2023-09-30T00:00:27;101345.34;;;18.91;65.15
37694;BME280;23531;50.122;8.644;2023-09-30T00:02:28;101346.66;;;18.89;65.17
37694;BME280;23531;50.122;8.644;2023-09-30T00:04:28;101353.53;;;18.91;65.12
37694;BME280;23531;50.122;8.644;2023-09-30T00:06:30;101356.06;;;18.81;65.64
37694;BME280;23531;50.122;8.644;2023-09-30T00:08:31;101363.88;;;18.77;66.03
37694;BME280;23531;50.122;8.644;2023-09-30T00:10:34;101366.38;;;18.79;66.34
37694;BME280;23531;50.122;8.644;2023-09-30T00:12:35;101374.69;;;18.72;66.70
37694;BME280;23531;50.122;8.644;2023-09-30T00:14:37;101376.47;;;18.67;67.25
37694;BME280;23531;50.122;8.644;2023-09-30T00:16:38;101383.09;;;18.71;67.43
37694;BME280;23531;50.122;8.644;2023-09-30T00:18:39;101381.53;;;18.63;67.43
37694;BME280;23531;50.122;8.644;2023-09-30T00:20:41;101383.56;;;18.68;67.74
37694;BME280;23531;50.122;8.644;2023-09-30T00:22:42;101387.47;;;18.72;67.88
37694;BME280;23531;50.122;8.644;2023-09-30T00:24:44;101385.69;;;18.66;68.03
37694;BME280;23531;50.122;8.644;2023-09-30T00:26:45;101388.06;;;18.50;68.48
37694;BME280;23531;50.122;8.644;2023-09-30T00:28:47;101389.25;;;18.55;68.64
37694;BME280;23531;50.122;8.644;2023-09-30T00:30:48;101383.09;;;18.47;68.65
37694;BME280;23531;50.122;8.644;2023-09-30T00:32:50;101378.13;;;18.33;69.07
37694;BME280;23531;50.122;8.644;2023-09-30T00:34:51;101389.50;;;18.30;69.33
37694;BME280;23531;50.122;8.644;2023-09-30T00:36:53;101391.28;;;18.24;69.45
37694;BME280;23531;50.122;8.644;2023-09-30T00:38:55;101395.06;;;18.35;69.49
37694;BME280;23531;50.122;8.644;2023-09-30T00:40:56;101402.41;;;18.34;69.10
37694;BME280;23531;50.122;8.644;2023-09-30T00:42:58;101393.63;;;18.44;68.90
37694;BME280;23531;50.122;8.644;2023-09-30T00:45:00;101408.91;;;18.57;68.86
37694;BME280;23531;50.122;8.644;2023-09-30T00:47:01;101407.97;;;18.63;68.34
37694;BME280;23531;50.122;8.644;2023-09-30T00:49:02;101399.69;;;18.58;68.33
37694;BME280;23531;50.122;8.644;2023-09-30T00:51:04;101418.28;;;18.61;68.23
37694;BME280;23531;50.122;8.644;2023-09-30T00:53:06;101407.63;;;18.47;68.85
37694;BME280;23531;50.122;8.644;2023-09-30T00:55:08;101403.34;;;18.40;69.45
37694;BME280;23531;50.122;8.644;2023-09-30T00:57:10;101403.94;;;18.42;69.47
37694;BME280;23531;50.122;8.644;2023-09-30T00:59:13;101399.69;;;18.34;69.88
37694;BME280;23531;50.122;8.644;2023-09-30T01:01:14;101410.09;;;18.26;70.58
37694;BME280;23531;50.122;8.644;2023-09-30T01:03:16;101398.72;;;18.29;70.78
37694;BME280;23531;50.122;8.644;2023-09-30T01:05:17;101406.66;;;18.19;71.32
37694;BME280;23531;50.122;8.644;2023-09-30T01:07:19;101411.16;;;18.25;71.37
37694;BME280;23531;50.122;8.644;2023-09-30T01:09:22;101410.09;;;18.14;71.66
37694;BME280;23531;50.122;8.644;2023-09-30T01:11:23;101405.72;;;18.13;71.96
37694;BME280;23531;50.122;8.644;2023-09-30T01:13:31;101409.03;;;18.27;71.69
37694;BME280;23531;50.122;8.644;2023-09-30T01:15:33;101407.16;;;18.27;71.47
37694;BME280;23531;50.122;8.644;2023-09-30T01:17:36;101412.22;;;18.35;71.14
37694;BME280;23531;50.122;8.644;2023-09-30T01:19:38;101426.91;;;18.34;71.21
37694;BME280;23531;50.122;8.644;2023-09-30T01:21:39;101420.63;;;18.34;71.08
37694;BME280;23531;50.122;8.644;2023-09-30T01:23:41;101428.09;;;18.27;71.12
37694;BME280;23531;50.122;8.644;2023-09-30T01:25:43;101429.50;;;18.29;71.21
37694;BME280;23531;50.122;8.644;2023-09-30T01:27:45;101433.66;;;18.32;71.25
37694;BME280;23531;50.122;8.644;2023-09-30T01:29:46;101423.59;;;18.32;71.10
37694;BME280;23531;50.122;8.644;2023-09-30T01:31:47;101431.53;;;18.34;71.40
37694;BME280;23531;50.122;8.644;2023-09-30T01:33:49;101430.94;;;18.43;71.16
37694;BME280;23531;50.122;8.644;2023-09-30T01:35:54;101425.47;;;18.43;71.04
37694;BME280;23531;50.122;8.644;2023-09-30T01:37:56;101436.38;;;18.43;71.23
37694;BME280;23531;50.122;8.644;2023-09-30T01:39:58;101428.09;;;18.38;71.15
37694;BME280;23531;50.122;8.644;2023-09-30T01:41:59;101433.88;;;18.42;70.94
37694;BME280;23531;50.122;8.644;2023-09-30T01:44:00;101435.53;;;18.43;71.28
37694;BME280;23531;50.122;8.644;2023-09-30T01:46:01;101425.94;;;18.40;71.00
37694;BME280;23531;50.122;8.644;2023-09-30T01:48:03;101418.50;;;18.36;70.89
37694;BME280;23531;50.122;8.644;2023-09-30T01:50:04;101424.31;;;18.39;70.74
37694;BME280;23531;50.122;8.644;2023-09-30T01:52:06;101419.22;;;18.31;70.73
37694;BME280;23531;50.122;8.644;2023-09-30T01:54:08;101423.13;;;18.35;70.73
37694;BME280;23531;50.122;8.644;2023-09-30T01:56:09;101426.69;;;18.36;70.60
37694;BME280;23531;50.122;8.644;2023-09-30T01:58:10;101414.94;;;18.24;70.19
37694;BME280;23531;50.122;8.644;2023-09-30T02:00:12;101407.38;;;18.26;70.15
37694;BME280;23531;50.122;8.644;2023-09-30T02:02:12;101399.31;;;18.31;70.16
37694;BME280;23531;50.122;8.644;2023-09-30T02:04:14;101398.16;;;18.27;69.82
37694;BME280;23531;50.122;8.644;2023-09-30T02:06:15;101407.47;;;18.19;69.93
37694;BME280;23531;50.122;8.644;2023-09-30T02:08:17;101410.78;;;18.09;69.72
37694;BME280;23531;50.122;8.644;2023-09-30T02:10:19;101419.78;;;18.10;69.67
37694;BME280;23531;50.122;8.644;2023-09-30T02:12:21;101422.88;;;18.02;69.19
37694;BME280;23531;50.122;8.644;2023-09-30T02:14:22;101426.75;;;18.06;69.06
37694;BME280;23531;50.122;8.644;2023-09-30T02:16:24;101435.44;;;18.14;68.35
37694;BME280;23531;50.122;8.644;2023-09-30T02:18:26;101436.50;;;18.13;68.10
37694;BME280;23531;50.122;8.644;2023-09-30T02:20:27;101437.78;;;18.11;67.95
37694;BME280;23531;50.122;8.644;2023-09-30T02:22:30;101435.28;;;18.09;67.20
37694;BME280;23531;50.122;8.644;2023-09-30T02:24:33;101437.78;;;18.11;66.82
37694;BME280;23531;50.122;8.644;2023-09-30T02:26:35;101447.47;;;18.07;66.64
37694;BME280;23531;50.122;8.644;2023-09-30T02:28:39;101450.53;;;17.99;66.24
37694;BME280;23531;50.122;8.644;2023-09-30T02:30:40;101446.91;;;18.05;65.92
37694;BME280;23531;50.122;8.644;2023-09-30T02:32:41;101448.53;;;17.94;65.91
37694;BME280;23531;50.122;8.644;2023-09-30T02:34:43;101442.13;;;17.89;65.81
37694;BME280;23531;50.122;8.644;2023-09-30T02:36:44;101443.19;;;17.88;65.92
37694;BME280;23531;50.122;8.644;2023-09-30T02:38:45;101436.00;;;17.93;65.63
37694;BME280;23531;50.122;8.644;2023-09-30T02:40:47;101445.44;;;17.91;65.41
37694;BME280;23531;50.122;8.644;2023-09-30T02:42:52;101440.34;;;17.83;65.47
37694;BME280;23531;50.122;8.644;2023-09-30T02:44:53;101436.44;;;17.78;65.53
37694;BME280;23531;50.122;8.644;2023-09-30T02:46:54;101435.44;;;17.73;65.80
37694;BME280;23531;50.122;8.644;2023-09-30T02:48:55;101437.13;;;17.74;65.91
37694;BME280;23531;50.122;8.644;2023-09-30T02:50:56;101435.44;;;17.73;65.75
37694;BME280;23531;50.122;8.644;2023-09-30T02:52:57;101437.94;;;17.74;65.91
37694;BME280;23531;50.122;8.644;2023-09-30T02:54:57;101450.63;;;17.81;65.75
37694;BME280;23531;50.122;8.644;2023-09-30T02:56:59;101459.03;;;17.79;65.75
37694;BME280;23531;50.122;8.644;2023-09-30T02:59:02;101462.81;;;17.78;65.93
37694;BME280;23531;50.122;8.644;2023-09-30T03:01:03;101461.81;;;17.72;65.87
37694;BME280;23531;50.122;8.644;2023-09-30T03:03:04;101466.81;;;17.75;65.78
37694;BME280;23531;50.122;8.644;2023-09-30T03:05:06;101470.97;;;17.78;65.89
37694;BME280;23531;50.122;8.644;2023-09-30T03:07:08;101476.19;;;17.61;66.08
37694;BME280;23531;50.122;8.644;2023-09-30T03:09:09;101472.00;;;17.47;66.21
37694;BME280;23531;50.122;8.644;2023-09-30T03:11:12;101469.41;;;17.52;66.58
37694;BME280;23531;50.122;8.644;2023-09-30T03:13:14;101460.53;;;17.45;66.46
37694;BME280;23531;50.122;8.644;2023-09-30T03:15:16;101451.78;;;17.43;66.67
37694;BME280;23531;50.122;8.644;2023-09-30T03:17:17;101458.69;;;17.57;66.86
37694;BME280;23531;50.122;8.644;2023-09-30T03:19:19;101460.94;;;17.60;66.60
37694;BME280;23531;50.122;8.644;2023-09-30T03:21:20;101445.69;;;17.59;66.46
37694;BME280;23531;50.122;8.644;2023-09-30T03:23:21;101444.63;;;17.60;66.31
37694;BME280;23531;50.122;8.644;2023-09-30T03:25:27;101449.00;;;17.61;66.18
37694;BME280;23531;50.122;8.644;2023-09-30T03:27:30;101458.59;;;17.64;66.25
37694;BME280;23531;50.122;8.644;2023-09-30T03:29:31;101454.63;;;17.48;66.24
37694;BME280;23531;50.122;8.644;2023-09-30T03:31:34;101450.81;;;17.19;67.04
37694;BME280;23531;50.122;8.644;2023-09-30T03:33:35;101449.94;;;17.25;67.54
37694;BME280;23531;50.122;8.644;2023-09-30T03:35:36;101453.63;;;17.13;67.83
37694;BME280;23531;50.122;8.644;2023-09-30T03:37:37;101460.81;;;17.25;67.95
37694;BME280;23531;50.122;8.644;2023-09-30T03:39:39;101474.28;;;17.32;67.74
37694;BME280;23531;50.122;8.644;2023-09-30T03:41:41;101483.50;;;17.31;67.86
37694;BME280;23531;50.122;8.644;2023-09-30T03:43:42;101475.28;;;17.37;67.60
37694;BME280;23531;50.122;8.644;2023-09-30T03:45:43;101477.16;;;17.37;67.59
37694;BME280;23531;50.122;8.644;2023-09-30T03:47:46;101481.06;;;17.41;67.66
37694;BME280;23531;50.122;8.644;2023-09-30T03:49:48;101481.56;;;17.38;67.75
37694;BME280;23531;50.122;8.644;2023-09-30T03:51:49;101488.03;;;17.37;67.66
37694;BME280;23531;50.122;8.644;2023-09-30T03:53:51;101495.59;;;17.35;67.97
37694;BME280;23531;50.122;8.644;2023-09-30T03:55:52;101489.22;;;17.41;67.64
37694;BME280;23531;50.122;8.644;2023-09-30T03:57:53;101501.38;;;17.38;67.59
37694;BME280;23531;50.122;8.644;2023-09-30T03:59:55;101496.94;;;17.44;67.67
37694;BME280;23531;50.122;8.644;2023-09-30T04:01:56;101495.66;;;17.47;67.68
37694;BME280;23531;50.122;8.644;2023-09-30T04:03:59;101501.75;;;17.42;67.54
37694;BME280;23531;50.122;8.644;2023-09-30T04:06:01;101494.66;;;17.41;67.88
37694;BME280;23531;50.122;8.644;2023-09-30T04:08:02;101488.44;;;17.22;68.06
37694;BME280;23531;50.122;8.644;2023-09-30T04:10:05;101474.03;;;17.03;68.80
37694;BME280;23531;50.122;8.644;2023-09-30T04:12:06;101477.31;;;17.05;68.96
37694;BME280;23531;50.122;8.644;2023-09-30T04:14:08;101491.38;;;17.21;68.79
37694;BME280;23531;50.122;8.644;2023-09-30T04:16:09;101490.59;;;17.32;68.58
37694;BME280;23531;50.122;8.644;2023-09-30T04:18:09;101475.34;;;17.31;68.57
37694;BME280;23531;50.122;8.644;2023-09-30T04:20:13;101490.75;;;17.37;68.23
37694;BME280;23531;50.122;8.644;2023-09-30T04:22:20;101484.50;;;17.36;68.17
37694;BME280;23531;50.122;8.644;2023-09-30T04:24:22;101497.16;;;17.42;67.99
37694;BME280;23531;50.122;8.644;2023-09-30T04:26:24;101506.03;;;17.38;67.81
37694;BME280;23531;50.122;8.644;2023-09-30T04:28:26;101496.03;;;17.32;68.12
37694;BME280;23531;50.122;8.644;2023-09-30T04:30:26;101502.91;;;17.34;68.17
37694;BME280;23531;50.122;8.644;2023-09-30T04:32:27;101512.34;;;17.32;68.23
37694;BME280;23531;50.122;8.644;2023-09-30T04:34:29;101514.63;;;17.35;67.97
37694;BME280;23531;50.122;8.644;2023-09-30T04:36:32;101515.75;;;17.27;68.34
37694;BME280;23531;50.122;8.644;2023-09-30T04:38:36;101516.75;;;17.15;68.54
37694;BME280;23531;50.122;8.644;2023-09-30T04:40:38;101520.44;;;17.02;69.40
37694;BME280;23531;50.122;8.644;2023-09-30T04:42:47;101517.41;;;17.10;69.70
37694;BME280;23531;50.122;8.644;2023-09-30T04:44:49;101517.19;;;17.12;69.63
37694;BME280;23531;50.122;8.644;2023-09-30T04:46:53;101509.50;;;17.09;69.88
37694;BME280;23531;50.122;8.644;2023-09-30T04:48:56;101504.19;;;16.95;70.13
37694;BME280;23531;50.122;8.644;2023-09-30T04:50:58;101500.00;;;16.99;70.48
37694;BME280;23531;50.122;8.644;2023-09-30T04:53:01;101506.25;;;17.00;70.49
37694;BME280;23531;50.122;8.644;2023-09-30T04:55:03;101508.81;;;17.13;70.40
37694;BME280;23531;50.122;8.644;2023-09-30T04:57:04;101517.03;;;17.06;70.22
37694;BME280;23531;50.122;8.644;2023-09-30T04:59:07;101513.13;;;17.02;70.25
37694;BME280;23531;50.122;8.644;2023-09-30T05:01:08;101512.06;;;17.03;69.91
37694;BME280;23531;50.122;8.644;2023-09-30T05:03:10;101516.91;;;17.01;70.05
37694;BME280;23531;50.122;8.644;2023-09-30T05:05:11;101515.16;;;17.07;69.97
37694;BME280;23531;50.122;8.644;2023-09-30T05:07:11;101516.69;;;17.03;70.01
37694;BME280;23531;50.122;8.644;2023-09-30T05:09:14;101526.25;;;16.87;70.45
37694;BME280;23531;50.122;8.644;2023-09-30T05:11:16;101511.44;;;16.83;70.56
37694;BME280;23531;50.122;8.644;2023-09-30T05:13:17;101508.78;;;16.77;70.96
37694;BME280;23531;50.122;8.644;2023-09-30T05:15:18;101508.13;;;16.81;71.05
37694;BME280;23531;50.122;8.644;2023-09-30T05:17:19;101520.88;;;16.81;71.14
37694;BME280;23531;50.122;8.644;2023-09-30T05:19:22;101522.28;;;16.83;70.89
37694;BME280;23531;50.122;8.644;2023-09-30T05:21:23;101520.63;;;16.82;71.16
37694;BME280;23531;50.122;8.644;2023-09-30T05:23:24;101521.84;;;16.68;71.43
37694;BME280;23531;50.122;8.644;2023-09-30T05:25:27;101514.88;;;16.72;71.80
37694;BME280;23531;50.122;8.644;2023-09-30T05:27:28;101511.91;;;16.80;71.29
37694;BME280;23531;50.122;8.644;2023-09-30T05:29:29;101508.13;;;16.81;71.33
37694;BME280;23531;50.122;8.644;2023-09-30T05:31:33;101519.00;;;16.81;71.23
37694;BME280;23531;50.122;8.644;2023-09-30T05:33:34;101507.06;;;16.82;71.16
37694;BME280;23531;50.122;8.644;2023-09-30T05:35:36;101513.25;;;16.89;71.36
37694;BME280;23531;50.122;8.644;2023-09-30T05:37:39;101519.75;;;16.88;71.04
37694;BME280;23531;50.122;8.644;2023-09-30T05:39:40;101526.06;;;16.82;70.89
37694;BME280;23531;50.122;8.644;2023-09-30T05:41:42;101527.94;;;16.82;70.91
37694;BME280;23531;50.122;8.644;2023-09-30T05:43:43;101539.06;;;16.80;71.04
37694;BME280;23531;50.122;8.644;2023-09-30T05:45:44;101531.50;;;16.82;70.74
37694;BME280;23531;50.122;8.644;2023-09-30T05:47:49;101531.19;;;16.72;71.16
37694;BME280;23531;50.122;8.644;2023-09-30T05:49:52;101542.03;;;16.72;71.23
37694;BME280;23531;50.122;8.644;2023-09-30T05:51:53;101549.63;;;16.70;71.42
37694;BME280;23531;50.122;8.644;2023-09-30T05:53:55;101543.28;;;16.76;71.37
37694;BME280;23531;50.122;8.644;2023-09-30T05:55:56;101536.63;;;16.72;71.25
37694;BME280;23531;50.122;8.644;2023-09-30T05:58:01;101546.28;;;16.61;71.83
37694;BME280;23531;50.122;8.644;2023-09-30T06:00:03;101533.75;;;16.67;72.11
37694;BME280;23531;50.122;8.644;2023-09-30T06:02:11;101544.97;;;16.70;71.81
37694;BME280;23531;50.122;8.644;2023-09-30T06:04:13;101544.00;;;16.65;71.78
37694;BME280;23531;50.122;8.644;2023-09-30T06:06:15;101545.44;;;16.67;71.84
37694;BME280;23531;50.122;8.644;2023-09-30T06:08:16;101543.78;;;16.66;71.97
37694;BME280;23531;50.122;8.644;2023-09-30T06:10:17;101542.41;;;16.51;72.34
37694;BME280;23531;50.122;8.644;2023-09-30T06:12:18;101550.56;;;16.51;72.51
37694;BME280;23531;50.122;8.644;2023-09-30T06:14:21;101559.69;;;16.63;72.16
37694;BME280;23531;50.122;8.644;2023-09-30T06:16:22;101547.69;;;16.70;71.90
37694;BME280;23531;50.122;8.644;2023-09-30T06:18:24;101554.56;;;16.73;71.78
37694;BME280;23531;50.122;8.644;2023-09-30T06:20:25;101567.91;;;16.81;71.59
37694;BME280;23531;50.122;8.644;2023-09-30T06:22:27;101562.47;;;16.81;71.11
37694;BME280;23531;50.122;8.644;2023-09-30T06:24:28;101566.88;;;16.76;71.11
37694;BME280;23531;50.122;8.644;2023-09-30T06:26:29;101557.06;;;16.75;71.15
37694;BME280;23531;50.122;8.644;2023-09-30T06:28:31;101568.00;;;16.68;71.51
37694;BME280;23531;50.122;8.644;2023-09-30T06:30:35;101575.22;;;16.81;71.59
37694;BME280;23531;50.122;8.644;2023-09-30T06:32:37;101571.16;;;16.90;71.19
37694;BME280;23531;50.122;8.644;2023-09-30T06:34:38;101567.59;;;16.89;70.98
37694;BME280;23531;50.122;8.644;2023-09-30T06:36:39;101569.53;;;16.82;71.26
37694;BME280;23531;50.122;8.644;2023-09-30T06:38:41;101565.75;;;16.83;71.26
37694;BME280;23531;50.122;8.644;2023-09-30T06:40:43;101571.06;;;16.78;71.38
37694;BME280;23531;50.122;8.644;2023-09-30T06:42:45;101574.81;;;16.77;71.97
37694;BME280;23531;50.122;8.644;2023-09-30T06:44:46;101581.94;;;16.72;71.76
37694;BME280;23531;50.122;8.644;2023-09-30T06:46:49;101576.78;;;16.70;71.97
37694;BME280;23531;50.122;8.644;2023-09-30T06:48:50;101579.63;;;16.75;72.22
37694;BME280;23531;50.122;8.644;2023-09-30T06:50:52;101581.75;;;16.73;72.20
37694;BME280;23531;50.122;8.644;2023-09-30T06:52:54;101594.47;;;16.73;72.44
37694;BME280;23531;50.122;8.644;2023-09-30T06:54:55;101594.25;;;16.74;71.65
37694;BME280;23531;50.122;8.644;2023-09-30T06:56:57;101596.22;;;16.67;71.84
37694;BME280;23531;50.122;8.644;2023-09-30T06:58:58;101604.38;;;16.67;72.07
37694;BME280;23531;50.122;8.644;2023-09-30T07:01:00;101600.59;;;16.68;71.91
37694;BME280;23531;50.122;8.644;2023-09-30T07:03:03;101594.22;;;16.49;72.58
37694;BME280;23531;50.122;8.644;2023-09-30T07:05:05;101608.81;;;16.55;72.63
37694;BME280;23531;50.122;8.644;2023-09-30T07:07:06;101611.28;;;16.63;72.08
37694;BME280;23531;50.122;8.644;2023-09-30T07:09:08;101612.06;;;16.70;71.87
37694;BME280;23531;50.122;8.644;2023-09-30T07:11:10;101595.28;;;16.80;71.76
37694;BME280;23531;50.122;8.644;2023-09-30T07:13:11;101589.72;;;16.68;71.96
37694;BME280;23531;50.122;8.644;2023-09-30T07:15:13;101603.66;;;16.47;72.42
37694;BME280;23531;50.122;8.644;2023-09-30T07:17:14;101599.06;;;16.47;72.69
37694;BME280;23531;50.122;8.644;2023-09-30T07:19:17;101594.97;;;16.63;72.46
37694;BME280;23531;50.122;8.644;2023-09-30T07:21:18;101607.84;;;16.74;71.99
37694;BME280;23531;50.122;8.644;2023-09-30T07:23:20;101594.47;;;16.73;71.61
37694;BME280;23531;50.122;8.644;2023-09-30T07:25:21;101603.03;;;16.76;71.58
37694;BME280;23531;50.122;8.644;2023-09-30T07:27:21;101602.19;;;16.76;71.57
37694;BME280;23531;50.122;8.644;2023-09-30T07:29:23;101602.53;;;16.86;71.17
37694;BME280;23531;50.122;8.644;2023-09-30T07:31:24;101611.69;;;16.91;70.96
37694;BME280;23531;50.122;8.644;2023-09-30T07:33:25;101615.81;;;16.94;70.67
37694;BME280;23531;50.122;8.644;2023-09-30T07:35:28;101618.31;;;16.95;70.47
37694;BME280;23531;50.122;8.644;2023-09-30T07:37:29;101614.53;;;16.96;70.40
37694;BME280;23531;50.122;8.644;2023-09-30T07:39:30;101620.38;;;17.00;70.34
37694;BME280;23531;50.122;8.644;2023-09-30T07:41:34;101624.31;;;17.04;70.21
37694;BME280;23531;50.122;8.644;2023-09-30T07:43:35;101611.09;;;17.08;69.83
37694;BME280;23531;50.122;8.644;2023-09-30T07:45:36;101605.34;;;16.97;69.75
37694;BME280;23531;50.122;8.644;2023-09-30T07:47:38;101607.94;;;16.86;69.94
37694;BME280;23531;50.122;8.644;2023-09-30T07:49:38;101600.41;;;16.63;70.10
37694;BME280;23531;50.122;8.644;2023-09-30T07:51:41;101601.50;;;16.55;70.21
37694;BME280;23531;50.122;8.644;2023-09-30T07:53:42;101602.13;;;16.82;70.16
37694;BME280;23531;50.122;8.644;2023-09-30T07:55:43;101604.38;;;17.10;69.65
37694;BME280;23531;50.122;8.644;2023-09-30T07:57:45;101602.66;;;17.34;69.25
37694;BME280;23531;50.122;8.644;2023-09-30T07:59:46;101596.09;;;17.41;68.53
37694;BME280;23531;50.122;8.644;2023-09-30T08:01:49;101605.00;;;17.30;67.34
37694;BME280;23531;50.122;8.644;2023-09-30T08:03:50;101599.97;;;17.34;67.67
37694;BME280;23531;50.122;8.644;2023-09-30T08:05:51;101602.97;;;17.62;67.51
37694;BME280;23531;50.122;8.644;2023-09-30T08:07:54;101597.84;;;17.72;66.92
37694;BME280;23531;50.122;8.644;2023-09-30T08:09:54;101593.59;;;17.76;66.94
37694;BME280;23531;50.122;8.644;2023-09-30T08:11:55;101585.69;;;17.75;66.69
37694;BME280;23531;50.122;8.644;2023-09-30T08:13:58;101591.06;;;17.82;66.49
37694;BME280;23531;50.122;8.644;2023-09-30T08:16:04;101601.00;;;17.51;65.70
37694;BME280;23531;50.122;8.644;2023-09-30T08:18:05;101608.63;;;17.61;66.18
37694;BME280;23531;50.122;8.644;2023-09-30T08:20:08;101614.88;;;17.61;66.04
37694;BME280;23531;50.122;8.644;2023-09-30T08:22:09;101606.16;;;17.59;65.92
37694;BME280;23531;50.122;8.644;2023-09-30T08:24:12;101608.41;;;17.62;66.01
37694;BME280;23531;50.122;8.644;2023-09-30T08:26:13;101602.81;;;17.57;65.88
37694;BME280;23531;50.122;8.644;2023-09-30T08:28:15;101618.44;;;17.62;65.94
37694;BME280;23531;50.122;8.644;2023-09-30T08:30:15;101609.94;;;17.58;65.85
37694;BME280;23531;50.122;8.644;2023-09-30T08:32:16;101610.16;;;17.57;65.96
37694;BME280;23531;50.122;8.644;2023-09-30T08:34:18;101608.50;;;17.56;65.75
37694;BME280;23531;50.122;8.644;2023-09-30T08:36:21;101620.19;;;17.56;65.52
37694;BME280;23531;50.122;8.644;2023-09-30T08:38:22;101620.66;;;17.53;65.68
37694;BME280;23531;50.122;8.644;2023-09-30T08:40:26;101623.13;;;17.55;65.50
37694;BME280;23531;50.122;8.644;2023-09-30T08:42:27;101623.59;;;17.52;65.49
37694;BME280;23531;50.122;8.644;2023-09-30T08:44:32;101636.34;;;17.51;65.57
37694;BME280;23531;50.122;8.644;2023-09-30T08:46:34;101637.41;;;17.50;65.74
37694;BME280;23531;50.122;8.644;2023-09-30T08:48:36;101633.50;;;17.46;65.77
37694;BME280;23531;50.122;8.644;2023-09-30T08:50:37;101641.22;;;17.49;65.75
37694;BME280;23531;50.122;8.644;2023-09-30T08:52:40;101641.66;;;17.46;65.95
37694;BME280;23531;50.122;8.644;2023-09-30T08:54:41;101636.75;;;17.36;66.18
37694;BME280;23531;50.122;8.644;2023-09-30T08:56:43;101631.44;;;17.23;66.21
37694;BME280;23531;50.122;8.644;2023-09-30T08:58:45;101638.47;;;17.31;66.54
37694;BME280;23531;50.122;8.644;2023-09-30T09:00:47;101642.19;;;17.36;66.46
37694;BME280;23531;50.122;8.644;2023-09-30T09:02:48;101637.63;;;17.30;66.66
37694;BME280;23531;50.122;8.644;2023-09-30T09:04:50;101636.34;;;17.33;66.42
37694;BME280;23531;50.122;8.644;2023-09-30T09:06:53;101643.38;;;17.40;66.41
37694;BME280;23531;50.122;8.644;2023-09-30T09:08:53;101649.50;;;17.36;66.43
37694;BME280;23531;50.122;8.644;2023-09-30T09:10:55;101651.16;;;17.37;66.17
37694;BME280;23531;50.122;8.644;2023-09-30T09:12:58;101653.31;;;17.28;66.21
37694;BME280;23531;50.122;8.644;2023-09-30T09:14:59;101656.00;;;17.35;66.43
37694;BME280;23531;50.122;8.644;2023-09-30T09:17:01;101655.56;;;17.38;66.50
37694;BME280;23531;50.122;8.644;2023-09-30T09:19:12;101653.06;;;17.36;66.28
37694;BME280;23531;50.122;8.644;2023-09-30T09:21:14;101644.06;;;17.36;66.29
37694;BME280;23531;50.122;8.644;2023-09-30T09:23:15;101648.44;;;17.37;66.33
37694;BME280;23531;50.122;8.644;2023-09-30T09:25:17;101656.34;;;17.38;66.32
37694;BME280;23531;50.122;8.644;2023-09-30T09:27:18;101653.38;;;17.47;66.29
37694;BME280;23531;50.122;8.644;2023-09-30T09:29:21;101656.22;;;17.52;65.98
37694;BME280;23531;50.122;8.644;2023-09-30T09:31:26;101660.38;;;17.54;65.89
37694;BME280;23531;50.122;8.644;2023-09-30T09:33:34;101652.84;;;17.56;65.87
37694;BME280;23531;50.122;8.644;2023-09-30T09:35:36;101655.28;;;17.64;65.64
37694;BME280;23531;50.122;8.644;2023-09-30T09:37:37;101651.66;;;17.70;65.67
37694;BME280;23531;50.122;8.644;2023-09-30T09:39:38;101646.34;;;17.75;65.58
37694;BME280;23531;50.122;8.644;2023-09-30T09:41:48;101648.63;;;17.78;65.46
37694;BME280;23531;50.122;8.644;2023-09-30T09:43:50;101651.56;;;17.77;65.45
37694;BME280;23531;50.122;8.644;2023-09-30T09:45:52;101649.84;;;17.83;65.21
37694;BME280;23531;50.122;8.644;2023-09-30T09:47:56;101653.75;;;17.87;64.60
37694;BME280;23531;50.122;8.644;2023-09-30T09:49:58;101654.19;;;17.84;63.28
37694;BME280;23531;50.122;8.644;2023-09-30T09:51:59;101656.69;;;17.85;63.46
37694;BME280;23531;50.122;8.644;2023-09-30T09:54:02;101654.91;;;17.79;63.14
37694;BME280;23531;50.122;8.644;2023-09-30T09:56:04;101652.41;;;17.77;62.75
37694;BME280;23531;50.122;8.644;2023-09-30T09:58:07;101654.06;;;17.78;62.64
37694;BME280;23531;50.122;8.644;2023-09-30T10:00:09;101651.78;;;17.75;62.63
37694;BME280;23531;50.122;8.644;2023-09-30T10:02:15;101641.75;;;17.76;62.79
37694;BME280;23531;50.122;8.644;2023-09-30T10:04:17;101636.75;;;17.73;62.42
37694;BME280;23531;50.122;8.644;2023-09-30T10:06:18;101620.69;;;17.71;62.62
37694;BME280;23531;50.122;8.644;2023-09-30T10:08:21;101617.03;;;17.77;62.78
37694;BME280;23531;50.122;8.644;2023-09-30T10:10:29;101610.78;;;17.77;62.78
37694;BME280;23531;50.122;8.644;2023-09-30T10:12:35;101618.69;;;17.78;62.99
37694;BME280;23531;50.122;8.644;2023-09-30T10:14:37;101606.16;;;17.77;62.91
37694;BME280;23531;50.122;8.644;2023-09-30T10:16:47;101606.16;;;17.77;62.86
37694;BME280;23531;50.122;8.644;2023-09-30T10:21:08;101602.22;;;17.92;62.14
37694;BME280;23531;50.122;8.644;2023-09-30T10:23:20;101599.78;;;17.84;61.77
37694;BME280;23531;50.122;8.644;2023-09-30T10:25:33;101600.88;;;17.83;61.19
37694;BME280;23531;50.122;8.644;2023-09-30T10:27:35;101600.25;;;17.81;60.83
37694;BME280;23531;50.122;8.644;2023-09-30T10:29:40;101598.16;;;17.83;60.19
37694;BME280;23531;50.122;8.644;2023-09-30T10:31:49;101600.16;;;17.87;60.29
37694;BME280;23531;50.122;8.644;2023-09-30T10:36:25;101600.31;;;17.92;58.43
37694;BME280;23531;50.122;8.644;2023-09-30T10:38:36;101608.00;;;17.95;57.78
37694;BME280;23531;50.122;8.644;2023-09-30T10:40:38;101597.88;;;18.02;57.81
37694;BME280;23531;50.122;8.644;2023-09-30T10:42:46;101612.94;;;18.05;57.94